createdAt,value
2017-09-09T00:01:05.332Z,6.60
2017-09-09T00:03:33.805Z,5.78
2017-09-09T00:06:02.835Z,6.10
2017-09-09T00:08:31.116Z,6.85
2017-09-09T00:10:59.414Z,6.70
2017-09-09T00:13:28.452Z,5.60
2017-09-09T00:15:56.759Z,5.55
2017-09-09T00:18:25.822Z,5.82
2017-09-09T00:20:54.102Z,5.68
2017-09-09T00:23:22.407Z,5.95
2017-09-09T00:25:50.757Z,7.12
2017-09-09T00:28:19.205Z,5.60
2017-09-09T00:30:47.652Z,6.30
2017-09-09T00:33:16.819Z,6.22
2017-09-09T00:35:45.943Z,4.78
2017-09-09T00:38:14.647Z,5.97
2017-09-09T00:40:44.084Z,5.75
2017-09-09T00:43:12.863Z,6.00
2017-09-09T00:45:41.730Z,6.32
2017-09-09T00:48:10.039Z,5.70
2017-09-09T00:50:38.342Z,6.30
2017-09-09T00:53:07.421Z,5.10
2017-09-09T00:55:36.452Z,5.55
2017-09-09T00:58:04.727Z,6.65
2017-09-09T01:00:33.037Z,6.28
2017-09-09T01:03:02.069Z,6.25
2017-09-09T01:05:30.380Z,6.97
2017-09-09T01:07:58.650Z,5.80
2017-09-09T01:10:26.928Z,6.25
2017-09-09T01:12:55.219Z,7.75
2017-09-09T01:15:23.500Z,6.65
2017-09-09T01:17:52.680Z,6.60
2017-09-09T01:20:20.952Z,6.22
2017-09-09T01:22:50.000Z,6.12
2017-09-09T01:25:18.304Z,6.32
2017-09-09T01:27:46.586Z,6.60
2017-09-09T01:30:14.909Z,6.95
2017-09-09T01:32:43.183Z,6.43
2017-09-09T01:35:12.240Z,5.90
2017-09-09T01:37:40.528Z,7.12
2017-09-09T01:40:09.553Z,6.20
2017-09-09T01:42:37.866Z,6.18
2017-09-09T01:45:06.914Z,6.60
2017-09-09T01:47:35.194Z,6.80
2017-09-09T01:50:03.471Z,5.80
2017-09-09T01:52:32.516Z,6.00
2017-09-09T01:55:00.831Z,6.90
2017-09-09T01:57:29.106Z,6.12
2017-09-09T01:59:57.379Z,6.68
2017-09-09T02:02:26.089Z,6.25
2017-09-09T02:04:54.365Z,7.25
2017-09-09T02:07:22.691Z,5.90
2017-09-09T02:09:50.969Z,5.68
2017-09-09T02:12:20.002Z,5.55
2017-09-09T02:14:48.283Z,5.75
2017-09-09T02:17:16.578Z,5.20
2017-09-09T02:19:44.888Z,6.45
2017-09-09T02:22:13.168Z,5.80
2017-09-09T02:24:41.447Z,6.45
2017-09-09T02:27:09.735Z,6.40
2017-09-09T02:29:38.786Z,5.97
2017-09-09T02:32:07.107Z,5.60
2017-09-09T02:34:35.380Z,6.43
2017-09-09T02:37:03.660Z,6.70
2017-09-09T02:39:31.951Z,5.57
2017-09-09T02:42:00.991Z,5.80
2017-09-09T02:44:29.297Z,4.85
2017-09-09T02:46:58.323Z,4.62
2017-09-09T02:49:26.593Z,6.47
2017-09-09T02:51:54.889Z,5.90
2017-09-09T02:54:23.933Z,6.12
2017-09-09T02:56:52.216Z,4.90
2017-09-09T02:59:20.488Z,6.68
2017-09-09T03:01:49.560Z,6.57
2017-09-09T03:04:18.598Z,6.68
2017-09-09T03:06:46.860Z,6.03
2017-09-09T03:09:15.154Z,6.30
2017-09-09T03:11:43.429Z,5.35
2017-09-09T03:14:11.757Z,4.80
2017-09-09T03:16:40.032Z,5.35
2017-09-09T03:19:08.307Z,5.47
2017-09-09T03:21:36.600Z,5.37
2017-09-09T03:24:04.875Z,5.40
2017-09-09T03:26:33.175Z,4.57
2017-09-09T03:29:01.450Z,5.57
2017-09-09T03:31:29.720Z,5.20
2017-09-09T03:33:58.776Z,4.80
2017-09-09T03:36:27.055Z,5.30
2017-09-09T03:38:55.355Z,5.25
2017-09-09T03:41:23.641Z,4.93
2017-09-09T03:43:51.912Z,5.65
2017-09-09T03:46:20.196Z,5.47
2017-09-09T03:48:48.469Z,5.68
2017-09-09T03:51:17.541Z,5.85
2017-09-09T03:53:45.820Z,7.00
2017-09-09T03:56:14.868Z,6.97
2017-09-09T03:58:43.166Z,5.55
2017-09-09T04:01:12.212Z,6.47
2017-09-09T04:03:40.524Z,6.30
2017-09-09T04:06:08.795Z,6.95
2017-09-09T04:08:37.063Z,5.47
2017-09-09T04:11:05.350Z,5.70
2017-09-09T04:13:33.616Z,5.50
2017-09-09T04:16:01.944Z,5.30
2017-09-09T04:18:30.212Z,5.80
2017-09-09T04:20:58.516Z,5.95
2017-09-09T04:23:26.795Z,5.72
2017-09-09T04:25:55.843Z,5.50
2017-09-09T04:28:24.224Z,6.15
2017-09-09T04:30:53.267Z,5.57
2017-09-09T04:33:21.540Z,5.30
2017-09-09T04:35:49.819Z,5.28
2017-09-09T04:38:18.096Z,6.40
2017-09-09T04:40:47.172Z,5.32
2017-09-09T04:43:16.216Z,5.62
2017-09-09T04:45:44.484Z,6.10
2017-09-09T04:48:12.786Z,5.80
2017-09-09T04:50:41.818Z,5.65
2017-09-09T04:53:10.427Z,5.47
2017-09-09T04:55:38.712Z,5.47
2017-09-09T04:58:06.990Z,4.90
2017-09-09T05:00:35.284Z,6.80
2017-09-09T05:03:03.548Z,5.03
2017-09-09T05:05:32.048Z,5.12
2017-09-09T05:08:00.324Z,5.47
2017-09-09T05:10:28.988Z,5.05
2017-09-09T05:12:57.283Z,5.80
2017-09-09T05:15:25.564Z,5.00
2017-09-09T05:17:53.881Z,5.55
2017-09-09T05:20:22.157Z,5.07
2017-09-09T05:22:50.420Z,4.97
2017-09-09T05:25:18.705Z,5.05
2017-09-09T05:27:46.978Z,5.22
2017-09-09T05:30:15.279Z,6.15
2017-09-09T05:32:43.561Z,4.70
2017-09-09T05:35:11.844Z,5.12
2017-09-09T05:37:40.156Z,5.32
2017-09-09T05:40:09.209Z,5.82
2017-09-09T05:42:37.531Z,4.80
2017-09-09T05:45:05.808Z,5.62
2017-09-09T05:47:34.108Z,5.25
2017-09-09T05:50:02.384Z,5.47
2017-09-09T05:52:30.656Z,5.60
2017-09-09T05:54:59.278Z,4.87
2017-09-09T05:57:27.553Z,4.87
2017-09-09T05:59:55.831Z,5.57
2017-09-09T06:02:24.890Z,5.65
2017-09-09T06:04:53.931Z,4.93
2017-09-09T06:07:22.259Z,5.15
2017-09-09T06:09:50.531Z,5.97
2017-09-09T06:12:18.810Z,5.43
2017-09-09T06:14:47.119Z,4.75
2017-09-09T06:17:15.391Z,4.70
2017-09-09T06:19:44.461Z,5.12
2017-09-09T06:22:12.740Z,5.62
2017-09-09T06:24:41.767Z,5.43
2017-09-09T06:27:10.053Z,5.35
2017-09-09T06:29:38.320Z,5.10
2017-09-09T06:32:07.380Z,4.97
2017-09-09T06:34:35.651Z,5.40
2017-09-09T06:37:03.954Z,5.05
2017-09-09T06:39:32.230Z,5.03
2017-09-09T06:42:00.661Z,5.95
2017-09-09T06:44:30.139Z,5.80
2017-09-09T06:46:59.175Z,5.60
2017-09-09T06:49:27.476Z,5.43
2017-09-09T06:51:55.731Z,5.43
2017-09-09T06:54:24.041Z,5.10
2017-09-09T06:56:52.312Z,5.20
2017-09-09T06:59:20.592Z,5.87
2017-09-09T07:01:48.882Z,5.12
2017-09-09T07:04:17.145Z,5.57
2017-09-09T07:06:46.224Z,6.18
2017-09-09T07:09:15.255Z,5.75
2017-09-09T07:11:43.528Z,6.00
2017-09-09T07:14:11.820Z,6.15
2017-09-09T07:16:40.100Z,4.70
2017-09-09T07:19:09.183Z,5.18
2017-09-09T07:21:38.230Z,5.70
2017-09-09T07:24:06.505Z,6.20
2017-09-09T07:26:34.788Z,5.32
2017-09-09T07:29:03.827Z,4.45
2017-09-09T07:31:32.119Z,5.20
2017-09-09T07:34:01.163Z,4.80
2017-09-09T07:36:29.652Z,5.75
2017-09-09T07:38:57.932Z,4.75
2017-09-09T07:41:27.289Z,5.00
2017-09-09T07:43:55.571Z,5.43
2017-09-09T07:46:24.971Z,5.57
2017-09-09T07:48:53.287Z,4.85
2017-09-09T07:51:21.563Z,5.72
2017-09-09T07:53:49.840Z,5.15
2017-09-09T07:56:18.116Z,5.37
2017-09-09T07:58:47.152Z,4.80
2017-09-09T08:01:15.484Z,5.95
2017-09-09T08:03:43.795Z,5.85
2017-09-09T08:06:12.073Z,5.45
2017-09-09T08:08:41.811Z,5.10
2017-09-09T08:11:10.092Z,5.00
2017-09-09T08:13:38.385Z,4.40
2017-09-09T08:16:07.429Z,4.82
2017-09-09T08:18:35.704Z,5.65
2017-09-09T08:21:04.776Z,4.45
2017-09-09T08:23:33.052Z,5.05
2017-09-09T08:26:01.364Z,6.60
2017-09-09T08:28:29.636Z,5.60
2017-09-09T08:30:57.911Z,4.60
2017-09-09T08:33:26.214Z,4.65
2017-09-09T08:38:29.216Z,6.15
2017-09-09T08:40:57.504Z,5.50
2017-09-09T08:43:25.806Z,5.82
2017-09-09T08:45:54.124Z,5.95
2017-09-09T08:48:22.400Z,4.43
2017-09-09T08:50:50.775Z,5.10
2017-09-09T08:53:19.047Z,5.80
2017-09-09T08:55:48.120Z,5.28
2017-09-09T08:58:16.420Z,4.93
2017-09-09T09:00:44.700Z,5.97
2017-09-09T09:03:12.999Z,6.35
2017-09-09T09:05:41.280Z,5.50
2017-09-09T09:08:10.307Z,5.80
2017-09-09T09:10:38.614Z,6.30
2017-09-09T09:13:06.896Z,6.43
2017-09-09T09:15:35.200Z,6.28
2017-09-09T09:18:03.478Z,5.82
2017-09-09T09:20:31.753Z,7.10
2017-09-09T09:23:00.035Z,5.78
2017-09-09T09:25:29.076Z,6.93
2017-09-09T09:27:57.387Z,5.97
2017-09-09T09:30:25.663Z,6.55
2017-09-09T09:32:53.925Z,5.18
2017-09-09T09:35:22.215Z,5.05
2017-09-09T09:37:50.479Z,5.30
2017-09-09T09:40:18.776Z,5.40
2017-09-09T09:42:47.054Z,5.07
2017-09-09T09:45:15.376Z,6.15
2017-09-09T09:47:43.651Z,6.35
2017-09-09T09:50:11.931Z,7.00
2017-09-09T09:52:40.994Z,5.40
2017-09-09T09:55:10.041Z,5.68
2017-09-09T09:57:38.565Z,7.00
2017-09-09T10:00:07.584Z,5.82
2017-09-09T10:02:35.852Z,5.72
2017-09-09T10:05:04.141Z,5.75
2017-09-09T10:07:32.404Z,6.20
2017-09-09T10:10:01.475Z,5.28
2017-09-09T10:12:29.747Z,5.20
2017-09-09T10:14:58.775Z,6.03
2017-09-09T10:17:27.079Z,5.50
2017-09-09T10:19:55.356Z,5.72
2017-09-09T10:22:23.683Z,5.43
2017-09-09T10:24:54.883Z,4.53
2017-09-09T10:27:23.167Z,5.10
2017-09-09T10:29:51.477Z,4.35
2017-09-09T10:32:20.513Z,5.70
2017-09-09T10:34:48.804Z,4.53
2017-09-09T10:37:17.848Z,5.10
2017-09-09T10:39:46.161Z,4.55
2017-09-09T10:42:15.212Z,5.12
2017-09-09T10:44:43.476Z,5.07
2017-09-09T10:47:12.080Z,4.90
2017-09-09T10:49:40.363Z,4.65
2017-09-09T10:52:08.676Z,6.95
2017-09-09T10:54:37.703Z,5.45
2017-09-09T10:57:05.984Z,4.72
2017-09-09T10:59:34.264Z,5.00
2017-09-09T11:02:02.536Z,5.43
2017-09-09T11:04:30.842Z,5.12
2017-09-09T11:06:59.096Z,4.00
2017-09-09T11:09:27.432Z,4.25
2017-09-09T11:11:56.472Z,4.00
2017-09-09T11:14:24.734Z,3.78
2017-09-09T11:16:53.023Z,5.22
2017-09-09T11:19:21.297Z,4.57
2017-09-09T11:21:50.392Z,4.65
2017-09-09T11:24:19.416Z,4.93
2017-09-09T11:26:47.684Z,5.20
2017-09-09T11:29:15.975Z,5.07
2017-09-09T11:31:45.003Z,4.78
2017-09-09T11:34:13.299Z,4.47
2017-09-09T11:36:41.603Z,6.00
2017-09-09T11:39:09.855Z,4.50
2017-09-09T11:41:38.154Z,4.57
2017-09-09T11:44:07.433Z,5.50
2017-09-09T11:46:35.709Z,5.65
2017-09-09T11:49:04.014Z,4.97
2017-09-09T11:51:33.248Z,5.47
2017-09-09T11:54:01.531Z,5.05
2017-09-09T11:56:29.813Z,5.87
2017-09-09T11:58:58.880Z,5.50
2017-09-09T12:01:27.160Z,5.50
2017-09-09T12:03:55.505Z,5.47
2017-09-09T12:06:23.785Z,6.10
2017-09-09T12:08:52.823Z,5.50
2017-09-09T12:11:21.127Z,5.20
2017-09-09T12:13:50.161Z,5.10
2017-09-09T12:16:18.445Z,4.22
2017-09-09T12:18:46.711Z,4.70
2017-09-09T12:21:15.809Z,5.20
2017-09-09T12:23:44.835Z,5.25
2017-09-09T12:26:13.108Z,4.72
2017-09-09T12:28:41.387Z,5.93
2017-09-09T12:31:10.436Z,4.75
2017-09-09T12:33:38.747Z,5.15
2017-09-09T12:36:07.797Z,5.55
2017-09-09T12:38:36.072Z,5.50
2017-09-09T12:41:05.127Z,4.55
2017-09-09T12:43:33.395Z,5.07
2017-09-09T12:46:01.709Z,5.97
2017-09-09T12:48:29.989Z,5.87
2017-09-09T12:50:58.254Z,6.15
2017-09-09T12:53:26.561Z,5.82
2017-09-09T12:55:54.830Z,6.62
2017-09-09T12:58:23.904Z,6.80
2017-09-09T13:00:52.935Z,5.45
2017-09-09T13:03:21.266Z,5.75
2017-09-09T13:05:49.533Z,7.15
2017-09-09T13:08:17.815Z,5.75
2017-09-09T13:10:46.104Z,4.60
2017-09-09T13:13:14.390Z,4.82
2017-09-09T13:15:43.420Z,5.05
2017-09-09T13:18:11.829Z,4.85
2017-09-09T13:20:40.859Z,5.62
2017-09-09T13:23:09.124Z,4.90
2017-09-09T13:25:37.407Z,4.25
2017-09-09T13:28:05.712Z,5.32
2017-09-09T13:30:34.743Z,4.75
2017-09-09T13:33:03.016Z,4.75
2017-09-09T13:35:31.308Z,5.50
2017-09-09T13:38:00.348Z,5.10
2017-09-09T13:40:28.663Z,5.37
2017-09-09T13:42:56.936Z,5.50
2017-09-09T13:45:25.214Z,5.28
2017-09-09T13:47:53.499Z,4.30
2017-09-09T13:50:21.795Z,5.37
2017-09-09T13:52:50.868Z,5.25
2017-09-09T13:55:19.917Z,5.90
2017-09-09T13:57:48.193Z,5.22
2017-09-09T14:00:16.480Z,4.87
2017-09-09T14:02:45.516Z,5.05
2017-09-09T14:05:13.830Z,5.62
2017-09-09T14:07:42.860Z,4.75
2017-09-09T14:10:11.124Z,3.97
2017-09-09T14:12:39.412Z,4.70
2017-09-09T14:15:08.448Z,4.90
2017-09-09T14:17:36.750Z,4.45
2017-09-09T14:20:05.779Z,5.15
2017-09-09T14:22:34.163Z,3.60
2017-09-09T14:25:02.460Z,3.62
2017-09-09T14:27:31.491Z,3.65
2017-09-09T14:29:59.812Z,4.45
2017-09-09T14:32:28.093Z,3.87
2017-09-09T14:34:56.364Z,3.25
2017-09-09T14:37:24.650Z,4.00
2017-09-09T14:39:52.920Z,2.87
2017-09-09T14:42:21.208Z,3.90
2017-09-09T14:44:50.231Z,4.03
2017-09-09T14:47:18.565Z,3.80
2017-09-09T14:49:46.843Z,4.30
2017-09-09T14:52:15.121Z,4.50
2017-09-09T14:54:43.527Z,3.70
2017-09-09T14:57:11.778Z,4.20
2017-09-09T14:59:40.055Z,3.92
2017-09-09T15:02:09.100Z,5.22
2017-09-09T15:04:37.408Z,5.00
2017-09-09T15:07:05.671Z,3.75
2017-09-09T15:09:33.940Z,5.12
2017-09-09T15:12:02.236Z,4.80
2017-09-09T15:14:30.519Z,4.47
2017-09-09T15:16:58.823Z,5.32
2017-09-09T15:19:27.100Z,6.12
2017-09-09T15:21:55.380Z,7.32
2017-09-09T15:24:23.680Z,5.70
2017-09-09T15:26:52.712Z,5.50
2017-09-09T15:29:21.020Z,5.15
2017-09-09T15:31:50.056Z,5.93
2017-09-09T15:34:18.334Z,5.55
2017-09-09T15:36:46.616Z,6.50
2017-09-09T15:39:15.808Z,5.25
2017-09-09T15:41:44.873Z,5.07
2017-09-09T15:44:13.141Z,5.95
2017-09-09T15:46:41.412Z,5.40
2017-09-09T15:49:10.484Z,5.30
2017-09-09T15:51:39.512Z,6.18
2017-09-09T15:54:07.813Z,5.87
2017-09-09T15:56:36.084Z,5.75
2017-09-09T15:59:04.340Z,6.45
2017-09-09T16:01:33.404Z,4.95
2017-09-09T16:04:01.680Z,5.35
2017-09-09T16:06:29.983Z,5.40
2017-09-09T16:08:58.252Z,6.40
2017-09-09T16:11:26.532Z,5.37
2017-09-09T16:13:54.819Z,5.75
2017-09-09T16:16:23.088Z,4.80
2017-09-09T16:18:52.176Z,5.20
2017-09-09T16:21:21.221Z,4.93
2017-09-09T16:23:49.490Z,4.90
2017-09-09T16:26:17.774Z,6.12
2017-09-09T16:28:46.816Z,5.80
2017-09-09T16:31:16.147Z,4.10
2017-09-09T16:33:45.184Z,4.50
2017-09-09T16:36:13.632Z,4.00
2017-09-09T16:38:41.911Z,4.78
2017-09-09T16:41:10.183Z,4.93
2017-09-09T16:43:38.500Z,5.03
2017-09-09T16:46:06.767Z,4.65
2017-09-09T16:48:35.036Z,4.60
2017-09-09T16:51:03.324Z,4.05
2017-09-09T16:53:31.601Z,5.40
2017-09-09T16:55:59.895Z,5.22
2017-09-09T16:58:28.171Z,5.47
2017-09-09T17:00:56.444Z,4.78
2017-09-09T17:03:24.732Z,4.25
2017-09-09T17:05:53.008Z,4.78
2017-09-09T17:08:21.316Z,3.90
2017-09-09T17:10:49.599Z,4.72
2017-09-09T17:13:17.864Z,4.30
2017-09-09T17:15:46.148Z,4.10
2017-09-09T17:18:14.427Z,4.65
2017-09-09T17:20:43.483Z,4.30
2017-09-09T17:23:11.758Z,5.03
2017-09-09T17:25:40.036Z,3.55
2017-09-09T17:28:09.091Z,4.30
2017-09-09T17:30:37.359Z,4.53
2017-09-09T17:33:05.651Z,4.18
2017-09-09T17:35:33.915Z,4.15
2017-09-09T17:38:02.211Z,4.00
2017-09-09T17:40:30.479Z,3.70
2017-09-09T17:42:58.757Z,3.95
2017-09-09T17:45:27.055Z,3.62
2017-09-09T17:47:56.082Z,4.45
2017-09-09T17:50:24.396Z,4.05
2017-09-09T17:52:52.975Z,4.12
2017-09-09T17:55:21.269Z,3.90
2017-09-09T17:57:49.556Z,3.80
2017-09-09T18:00:17.852Z,3.92
2017-09-09T18:02:46.184Z,4.12
2017-09-09T18:05:14.455Z,5.12
2017-09-09T18:07:42.710Z,3.95
2017-09-09T18:10:11.764Z,3.40
2017-09-09T18:12:40.040Z,3.80
2017-09-09T18:15:08.331Z,3.75
2017-09-09T18:17:36.608Z,3.22
2017-09-09T18:20:04.920Z,3.03
2017-09-09T18:22:33.184Z,3.55
2017-09-09T18:25:01.453Z,3.20
2017-09-09T18:27:29.739Z,3.45
2017-09-09T18:29:58.030Z,3.75
2017-09-09T18:32:26.334Z,3.10
2017-09-09T18:34:54.607Z,3.47
2017-09-09T18:37:23.627Z,3.60
2017-09-09T18:39:51.906Z,4.00
2017-09-09T18:42:20.179Z,3.80
2017-09-09T18:44:48.487Z,4.10
2017-09-09T18:47:16.780Z,3.92
2017-09-09T18:49:45.047Z,3.62
2017-09-09T18:52:13.420Z,4.00
2017-09-09T18:54:41.696Z,4.10
2017-09-09T18:57:09.980Z,4.10
2017-09-09T18:59:39.015Z,4.80
2017-09-09T19:02:07.332Z,4.28
2017-09-09T19:04:36.368Z,4.70
2017-09-09T19:07:04.646Z,3.85
2017-09-09T19:09:32.920Z,5.87
2017-09-09T19:12:01.957Z,4.60
2017-09-09T19:14:30.284Z,4.85
2017-09-09T19:16:58.570Z,5.25
2017-09-09T19:19:26.843Z,4.37
2017-09-09T19:21:55.119Z,4.70
2017-09-09T19:24:23.396Z,4.50
2017-09-09T19:26:51.868Z,4.25
2017-09-09T19:29:20.904Z,4.78
2017-09-09T19:31:49.175Z,4.80
2017-09-09T19:34:17.455Z,3.92
2017-09-09T19:36:45.725Z,4.40
2017-09-09T19:39:14.783Z,3.75
2017-09-09T19:41:43.060Z,4.18
2017-09-09T19:44:11.438Z,3.65
2017-09-09T19:46:39.715Z,3.92
2017-09-09T19:49:08.743Z,4.43
2017-09-09T19:51:37.244Z,3.90
2017-09-09T19:54:06.612Z,4.30
2017-09-09T19:56:35.667Z,3.78
2017-09-09T19:59:03.947Z,3.90
2017-09-09T20:01:32.216Z,3.72
2017-09-09T20:04:00.528Z,3.33
2017-09-09T20:06:28.800Z,3.40
2017-09-09T20:08:57.081Z,3.60
2017-09-09T20:11:25.359Z,4.28
2017-09-09T20:13:53.663Z,3.58
2017-09-09T20:16:21.945Z,4.12
2017-09-09T20:18:50.203Z,3.40
2017-09-09T20:21:18.493Z,4.00
2017-09-09T20:23:46.759Z,4.10
2017-09-09T20:26:15.081Z,3.55
2017-09-09T20:28:43.343Z,3.67
2017-09-09T20:31:11.617Z,3.62
2017-09-09T20:33:39.905Z,3.30
2017-09-09T20:36:08.169Z,2.67
2017-09-09T20:38:36.653Z,3.67
2017-09-09T20:41:04.927Z,3.87
2017-09-09T20:43:34.087Z,3.35
2017-09-09T20:46:02.378Z,3.90
2017-09-09T20:48:30.644Z,3.60
2017-09-09T20:50:59.064Z,3.90
2017-09-09T20:53:27.339Z,4.28
2017-09-09T20:55:56.392Z,3.87
2017-09-09T20:58:24.671Z,3.37
2017-09-09T21:00:52.946Z,4.72
2017-09-09T21:03:22.043Z,4.70
2017-09-09T21:05:51.068Z,4.80
2017-09-09T21:08:19.338Z,4.95
2017-09-09T21:10:47.619Z,5.03
2017-09-09T21:13:16.670Z,5.40
2017-09-09T21:15:44.988Z,5.57
2017-09-09T21:18:14.015Z,6.32
2017-09-09T21:20:42.295Z,6.32
2017-09-09T21:23:10.575Z,5.07
2017-09-09T21:25:39.607Z,5.85
2017-09-09T21:28:07.891Z,6.32
2017-09-09T21:30:36.168Z,5.45
2017-09-09T21:33:05.346Z,6.55
2017-09-09T21:35:33.629Z,6.18
2017-09-09T21:38:01.892Z,6.43
2017-09-09T21:40:30.936Z,6.00
2017-09-09T21:42:59.213Z,6.20
2017-09-09T21:45:28.283Z,6.45
2017-09-09T21:47:56.547Z,5.55
2017-09-09T21:50:24.819Z,6.65
2017-09-09T21:52:53.883Z,6.18
2017-09-09T21:55:22.163Z,5.97
2017-09-09T21:57:51.213Z,5.85
2017-09-09T22:00:19.496Z,6.35
2017-09-09T22:02:47.815Z,5.78
2017-09-09T22:05:16.087Z,5.35
2017-09-09T22:07:44.368Z,5.60
2017-09-09T22:10:12.668Z,6.03
2017-09-09T22:12:40.955Z,5.75
2017-09-09T22:15:09.577Z,6.03
2017-09-09T22:17:38.615Z,5.03
2017-09-09T22:20:06.888Z,5.87
2017-09-09T22:22:35.182Z,5.30
2017-09-09T22:25:03.444Z,4.87
2017-09-09T22:27:31.760Z,5.22
2017-09-09T22:30:00.037Z,4.95
2017-09-09T22:32:30.328Z,5.28
2017-09-09T22:34:58.636Z,5.32
2017-09-09T22:37:27.718Z,4.60
2017-09-09T22:39:56.993Z,5.07
2017-09-09T22:42:26.028Z,6.32
2017-09-09T22:44:54.300Z,5.20
2017-09-09T22:47:22.587Z,6.25
2017-09-09T22:49:50.860Z,5.82
2017-09-09T22:52:20.041Z,5.30
2017-09-09T22:54:49.078Z,5.05
2017-09-09T22:57:17.343Z,5.12
2017-09-09T22:59:45.635Z,6.12
2017-09-09T23:02:14.031Z,5.40
2017-09-09T23:04:42.327Z,5.35
2017-09-09T23:07:10.595Z,6.18
2017-09-09T23:09:38.868Z,6.22
2017-09-09T23:12:07.143Z,5.30
2017-09-09T23:14:36.180Z,6.07
2017-09-09T23:17:04.483Z,5.90
2017-09-09T23:19:33.519Z,6.40
2017-09-09T23:22:01.784Z,6.50
2017-09-09T23:24:30.067Z,6.50
2017-09-09T23:26:58.331Z,6.15
2017-09-09T23:29:26.648Z,7.03
2017-09-09T23:31:54.916Z,6.47
2017-09-09T23:34:23.188Z,6.28
2017-09-09T23:36:51.472Z,6.70
2017-09-09T23:39:19.731Z,6.30
2017-09-09T23:41:48.052Z,7.57
2017-09-09T23:44:16.331Z,7.03
2017-09-09T23:46:44.615Z,7.70
2017-09-09T23:49:12.907Z,7.12
2017-09-09T23:51:41.943Z,6.75
2017-09-09T23:54:10.236Z,8.23
2017-09-09T23:56:38.508Z,8.65
2017-09-09T23:59:07.532Z,6.22
